createdAt,value
2018-12-07T00:00:21.284Z,82.10
2018-12-07T00:02:51.289Z,82.20
2018-12-07T00:05:19.353Z,82.00
2018-12-07T00:07:47.294Z,81.50
2018-12-07T00:10:15.313Z,81.20
2018-12-07T00:12:44.226Z,81.10
2018-12-07T00:15:12.332Z,80.80
2018-12-07T00:17:40.577Z,80.60
2018-12-07T00:20:09.016Z,80.80
2018-12-07T00:22:37.116Z,80.50
2018-12-07T00:25:06.378Z,79.70
2018-12-07T00:27:34.271Z,78.80
2018-12-07T00:30:02.313Z,78.70
2018-12-07T00:32:30.375Z,79.00
2018-12-07T00:34:58.399Z,79.40
2018-12-07T00:37:26.885Z,79.60
2018-12-07T00:39:54.750Z,79.80
2018-12-07T00:42:22.622Z,80.70
2018-12-07T00:44:50.670Z,79.40
2018-12-07T00:47:18.535Z,79.90
2018-12-07T00:49:46.427Z,79.80
2018-12-07T00:52:14.351Z,79.70
2018-12-07T00:54:42.270Z,80.00
2018-12-07T00:57:10.232Z,79.80
2018-12-07T00:59:41.784Z,79.80
2018-12-07T01:02:09.716Z,80.20
2018-12-07T01:04:37.698Z,81.20
2018-12-07T01:07:05.629Z,81.10
2018-12-07T01:09:33.639Z,81.00
2018-12-07T01:12:01.672Z,80.80
2018-12-07T01:14:29.699Z,80.90
2018-12-07T01:16:57.608Z,80.60
2018-12-07T01:19:25.721Z,80.20
2018-12-07T01:22:12.753Z,80.30
2018-12-07T01:24:40.552Z,80.50
2018-12-07T01:27:08.512Z,80.50
2018-12-07T01:29:37.153Z,80.50
2018-12-07T01:32:05.901Z,80.70
2018-12-07T01:34:33.705Z,81.10
2018-12-07T01:37:01.748Z,81.00
2018-12-07T01:39:29.794Z,81.20
2018-12-07T01:41:57.621Z,81.60
2018-12-07T01:44:25.449Z,82.10
2018-12-07T01:46:53.426Z,81.90
2018-12-07T01:49:21.472Z,81.90
2018-12-07T01:51:49.253Z,81.60
2018-12-07T01:54:17.084Z,81.50
2018-12-07T01:56:45.027Z,81.30
2018-12-07T01:59:12.838Z,81.30
2018-12-07T02:01:40.761Z,81.60
2018-12-07T02:04:08.692Z,82.20
2018-12-07T02:06:36.696Z,83.90
2018-12-07T02:09:07.249Z,83.20
2018-12-07T02:11:37.156Z,83.30
2018-12-07T02:14:05.128Z,83.20
2018-12-07T02:16:33.170Z,83.30
2018-12-07T02:19:01.115Z,83.30
2018-12-07T02:21:29.333Z,83.50
2018-12-07T02:23:58.891Z,83.90
2018-12-07T02:26:31.808Z,84.30
2018-12-07T02:28:59.641Z,84.60
2018-12-07T02:31:27.537Z,84.90
2018-12-07T02:33:55.615Z,84.90
2018-12-07T02:36:23.520Z,85.20
2018-12-07T02:38:51.389Z,85.40
2018-12-07T02:41:19.539Z,85.40
2018-12-07T02:43:47.558Z,85.90
2018-12-07T02:46:15.477Z,86.30
2018-12-07T02:48:44.281Z,86.00
2018-12-07T02:51:15.179Z,86.10
2018-12-07T02:53:44.030Z,86.10
2018-12-07T02:56:12.008Z,86.00
2018-12-07T02:58:39.905Z,86.00
2018-12-07T03:01:15.717Z,86.00
2018-12-07T03:03:50.009Z,86.20
2018-12-07T03:06:19.069Z,86.50
2018-12-07T03:08:47.085Z,86.40
2018-12-07T03:11:20.593Z,86.40
2018-12-07T03:13:48.460Z,86.40
2018-12-07T03:16:16.414Z,86.40
2018-12-07T03:18:44.288Z,86.00
2018-12-07T03:21:12.180Z,86.30
2018-12-07T03:23:40.096Z,86.40
2018-12-07T03:26:08.183Z,87.30
2018-12-07T03:28:36.008Z,87.70
2018-12-07T03:31:04.030Z,87.80
2018-12-07T03:33:31.905Z,88.50
2018-12-07T03:35:59.783Z,88.40
2018-12-07T03:38:27.634Z,88.40
2018-12-07T03:40:55.564Z,88.20
2018-12-07T03:43:23.452Z,88.00
2018-12-07T03:45:51.467Z,87.80
2018-12-07T03:48:19.414Z,87.60
2018-12-07T03:50:48.229Z,87.40
2018-12-07T03:53:16.105Z,88.10
2018-12-07T03:55:43.974Z,87.70
2018-12-07T03:58:11.979Z,88.50
2018-12-07T04:00:40.010Z,87.70
2018-12-07T04:03:08.180Z,87.70
2018-12-07T04:05:36.450Z,87.60
2018-12-07T04:08:04.606Z,87.70
2018-12-07T04:10:32.590Z,88.00
2018-12-07T04:13:00.405Z,88.30
2018-12-07T04:15:29.765Z,88.60
2018-12-07T04:17:57.802Z,88.50
2018-12-07T04:20:25.601Z,88.70
2018-12-07T04:22:57.420Z,88.70
2018-12-07T04:25:29.032Z,88.70
2018-12-07T04:27:59.077Z,88.60
2018-12-07T04:30:27.941Z,88.70
2018-12-07T04:32:55.808Z,88.30
2018-12-07T04:35:23.981Z,88.30
2018-12-07T04:37:52.377Z,88.20
2018-12-07T04:40:20.438Z,88.30
2018-12-07T04:42:48.782Z,88.20
2018-12-07T04:45:17.044Z,88.00
2018-12-07T04:47:44.866Z,88.10
2018-12-07T04:50:12.945Z,88.10
2018-12-07T04:52:40.963Z,88.30
2018-12-07T04:55:08.975Z,88.40
2018-12-07T04:57:37.767Z,88.60
2018-12-07T05:00:07.056Z,88.60
2018-12-07T05:02:35.658Z,88.90
2018-12-07T05:05:04.239Z,89.00
2018-12-07T05:07:32.009Z,89.00
2018-12-07T05:09:59.869Z,89.10
2018-12-07T05:12:27.828Z,89.40
2018-12-07T05:14:55.797Z,89.40
2018-12-07T05:17:23.624Z,89.50
2018-12-07T05:19:51.426Z,89.50
2018-12-07T05:22:19.226Z,89.40
2018-12-07T05:24:47.027Z,89.20
2018-12-07T05:27:14.958Z,89.10
2018-12-07T05:29:42.929Z,89.00
2018-12-07T05:32:10.975Z,88.90
2018-12-07T05:34:38.820Z,89.00
2018-12-07T05:37:06.794Z,89.00
2018-12-07T05:39:34.685Z,89.20
2018-12-07T05:42:02.535Z,89.50
2018-12-07T05:44:30.387Z,89.20
2018-12-07T05:46:59.608Z,90.00
2018-12-07T05:49:27.517Z,89.40
2018-12-07T05:51:58.334Z,90.00
2018-12-07T05:54:26.860Z,89.80
2018-12-07T05:56:54.609Z,89.50
2018-12-07T05:59:23.869Z,89.80
2018-12-07T06:01:52.085Z,89.80
2018-12-07T06:04:19.853Z,90.00
2018-12-07T06:06:47.691Z,89.70
2018-12-07T06:09:15.625Z,89.90
2018-12-07T06:11:43.376Z,89.70
2018-12-07T06:14:11.194Z,90.00
2018-12-07T06:16:39.008Z,89.60
2018-12-07T06:21:41.447Z,89.90
2018-12-07T06:24:09.662Z,90.00
2018-12-07T06:26:44.452Z,90.20
2018-12-07T06:29:12.570Z,90.20
2018-12-07T06:31:40.537Z,90.00
2018-12-07T06:34:08.484Z,90.00
2018-12-07T06:36:36.400Z,90.00
2018-12-07T06:39:08.727Z,89.90
2018-12-07T06:41:36.705Z,89.90
2018-12-07T06:44:04.805Z,90.00
2018-12-07T06:46:32.618Z,90.00
2018-12-07T06:49:13.678Z,90.00
2018-12-07T06:51:45.397Z,90.00
2018-12-07T06:54:15.546Z,89.80
2018-12-07T06:56:43.493Z,89.60
2018-12-07T06:59:11.469Z,89.50
2018-12-07T07:01:39.423Z,89.60
2018-12-07T07:04:07.287Z,89.60
2018-12-07T07:06:35.159Z,89.50
2018-12-07T07:09:06.293Z,89.60
2018-12-07T07:11:35.188Z,89.40
2018-12-07T07:14:03.363Z,89.30
2018-12-07T07:16:34.752Z,89.40
2018-12-07T07:19:02.630Z,89.20
2018-12-07T07:24:09.449Z,89.00
2018-12-07T07:26:37.720Z,88.60
2018-12-07T07:29:05.730Z,88.50
2018-12-07T07:31:33.517Z,88.50
2018-12-07T07:34:01.368Z,88.40
2018-12-07T07:36:29.305Z,88.20
2018-12-07T07:38:57.123Z,88.20
2018-12-07T07:41:25.115Z,87.80
2018-12-07T07:43:53.263Z,87.70
2018-12-07T07:46:21.145Z,87.30
2018-12-07T07:48:50.156Z,87.20
2018-12-07T07:51:20.628Z,87.70
2018-12-07T07:53:48.407Z,87.10
2018-12-07T07:56:16.246Z,86.80
2018-12-07T07:58:44.166Z,86.70
2018-12-07T08:01:12.145Z,86.80
2018-12-07T08:03:40.140Z,87.20
2018-12-07T08:06:08.045Z,87.40
2018-12-07T08:08:35.945Z,87.30
2018-12-07T08:11:04.817Z,86.90
2018-12-07T08:13:33.121Z,86.90
2018-12-07T08:16:01.621Z,86.90
2018-12-07T08:18:29.590Z,87.00
2018-12-07T08:20:57.440Z,87.10
2018-12-07T08:23:26.723Z,87.10
2018-12-07T08:25:58.494Z,87.00
2018-12-07T08:28:26.355Z,86.80
2018-12-07T08:30:54.484Z,86.70
2018-12-07T08:33:22.467Z,86.40
2018-12-07T08:35:50.515Z,85.90
2018-12-07T08:38:19.340Z,85.80
2018-12-07T08:40:57.157Z,85.80
2018-12-07T08:43:25.386Z,85.90
2018-12-07T08:45:53.172Z,86.00
2018-12-07T08:48:21.133Z,85.80
2018-12-07T08:50:49.078Z,85.60
2018-12-07T08:53:17.072Z,85.40
2018-12-07T08:55:45.072Z,85.40
2018-12-07T08:58:14.010Z,85.30
2018-12-07T09:00:43.061Z,84.80
2018-12-07T09:03:11.033Z,84.50
2018-12-07T09:05:39.142Z,84.40
2018-12-07T09:08:15.171Z,84.10
2018-12-07T09:10:42.331Z,84.10
2018-12-07T09:13:10.507Z,83.60
2018-12-07T09:15:38.440Z,82.90
2018-12-07T09:18:06.447Z,82.40
2018-12-07T09:20:34.377Z,82.20
2018-12-07T09:23:04.323Z,82.10
2018-12-07T09:25:34.052Z,82.30
2018-12-07T09:28:02.028Z,83.10
2018-12-07T09:30:29.880Z,82.80
2018-12-07T09:32:57.688Z,82.50
2018-12-07T09:35:25.554Z,82.20
2018-12-07T09:37:53.434Z,81.80
2018-12-07T09:40:21.357Z,81.90
2018-12-07T09:42:49.427Z,81.90
2018-12-07T09:45:17.214Z,81.60
2018-12-07T09:47:45.270Z,81.10
2018-12-07T09:50:13.420Z,80.50
2018-12-07T09:52:41.243Z,80.00
2018-12-07T09:55:09.249Z,80.30
2018-12-07T09:57:37.086Z,79.90
2018-12-07T10:00:06.481Z,80.00
2018-12-07T10:02:34.721Z,80.00
2018-12-07T10:05:03.942Z,80.00
2018-12-07T10:07:31.873Z,80.10
2018-12-07T10:09:59.648Z,80.30
2018-12-07T10:12:27.588Z,80.30
2018-12-07T10:14:55.510Z,80.10
2018-12-07T10:17:25.694Z,80.10
2018-12-07T10:19:54.015Z,79.40
2018-12-07T10:22:21.884Z,79.30
2018-12-07T10:24:49.745Z,78.70
2018-12-07T10:27:20.844Z,78.30
2018-12-07T10:29:48.768Z,77.70
2018-12-07T10:32:16.854Z,78.10
2018-12-07T10:34:44.640Z,78.10
2018-12-07T10:37:12.671Z,78.50
2018-12-07T10:39:43.042Z,78.60
2018-12-07T10:42:11.012Z,78.60
2018-12-07T10:47:13.827Z,78.60
2018-12-07T10:49:41.739Z,78.80
2018-12-07T10:52:09.587Z,78.80
2018-12-07T10:54:37.529Z,78.70
2018-12-07T10:57:05.421Z,78.50
2018-12-07T10:59:33.212Z,78.60
2018-12-07T11:02:06.717Z,78.50
2018-12-07T11:04:40.397Z,78.30
2018-12-07T11:07:14.014Z,78.20
2018-12-07T11:09:45.164Z,78.20
2018-12-07T11:12:18.860Z,78.00
2018-12-07T11:14:52.578Z,78.10
2018-12-07T11:17:29.389Z,78.20
2018-12-07T11:22:10.124Z,78.10
2018-12-07T11:24:44.053Z,77.90
2018-12-07T11:27:17.827Z,77.80
2018-12-07T11:29:51.431Z,77.60
2018-12-07T11:32:23.805Z,77.80
2018-12-07T11:34:56.660Z,77.90
2018-12-07T11:37:25.517Z,78.20
2018-12-07T11:39:53.625Z,78.30
2018-12-07T11:42:23.577Z,78.60
2018-12-07T11:44:51.417Z,78.70
2018-12-07T11:47:19.466Z,78.90
2018-12-07T11:49:50.674Z,79.00
2018-12-07T11:52:19.805Z,79.10
2018-12-07T11:59:54.907Z,77.80
2018-12-07T12:02:26.707Z,77.70
2018-12-07T12:04:54.745Z,77.60
2018-12-07T12:07:22.783Z,77.40
2018-12-07T12:09:50.841Z,77.60
2018-12-07T12:12:20.690Z,77.90
2018-12-07T12:14:48.540Z,77.90
2018-12-07T12:17:16.557Z,78.10
2018-12-07T12:19:48.401Z,78.40
2018-12-07T12:22:16.456Z,79.00
2018-12-07T12:24:47.114Z,79.30
2018-12-07T12:27:15.071Z,79.30
2018-12-07T12:29:42.926Z,79.10
2018-12-07T12:32:10.861Z,78.80
2018-12-07T12:34:38.655Z,78.50
2018-12-07T12:37:06.699Z,78.30
2018-12-07T12:39:34.795Z,77.70
2018-12-07T12:42:02.850Z,77.10
2018-12-07T12:44:32.147Z,76.60
2018-12-07T12:47:00.089Z,76.00
2018-12-07T12:49:28.442Z,75.70
2018-12-07T12:51:57.027Z,75.40
2018-12-07T12:54:25.241Z,75.80
2018-12-07T12:56:53.248Z,76.00
2018-12-07T12:59:21.054Z,76.00
2018-12-07T13:01:49.315Z,76.30
2018-12-07T13:04:17.172Z,76.20
2018-12-07T13:06:45.893Z,76.30
2018-12-07T13:09:13.721Z,76.50
2018-12-07T13:11:42.461Z,76.80
2018-12-07T13:14:11.223Z,76.80
2018-12-07T13:16:39.059Z,76.50
2018-12-07T13:19:07.090Z,77.30
2018-12-07T13:21:35.581Z,77.30
2018-12-07T13:24:03.627Z,77.50
2018-12-07T13:26:31.946Z,77.60
2018-12-07T13:29:00.527Z,77.80
2018-12-07T13:31:29.012Z,78.10
2018-12-07T13:33:57.208Z,78.50
2018-12-07T13:36:25.415Z,78.80
2018-12-07T13:38:53.786Z,79.00
2018-12-07T13:41:22.338Z,79.30
2018-12-07T13:43:53.245Z,79.60
2018-12-07T13:46:21.646Z,80.00
2018-12-07T13:48:49.750Z,80.50
2018-12-07T13:51:18.970Z,80.90
2018-12-07T13:53:47.144Z,81.30
2018-12-07T13:56:16.400Z,81.50
2018-12-07T13:58:48.682Z,81.80
2018-12-07T14:01:16.810Z,82.00
2018-12-07T14:03:45.005Z,82.20
2018-12-07T14:06:13.214Z,82.40
2018-12-07T14:08:41.411Z,82.80
2018-12-07T14:11:09.619Z,82.50
2018-12-07T14:13:37.680Z,82.80
2018-12-07T14:16:06.741Z,82.90
2018-12-07T14:18:34.828Z,82.90
2018-12-07T14:21:03.488Z,83.00
2018-12-07T14:23:31.537Z,82.90
2018-12-07T14:26:00.081Z,83.00
2018-12-07T14:28:29.851Z,83.10
2018-12-07T14:30:58.110Z,83.00
2018-12-07T14:33:26.235Z,83.00
2018-12-07T14:35:55.637Z,83.00
2018-12-07T14:38:24.436Z,82.90
2018-12-07T14:40:52.417Z,83.00
2018-12-07T14:43:20.455Z,82.90
2018-12-07T14:45:50.018Z,82.70
2018-12-07T14:48:18.131Z,82.70
2018-12-07T14:50:46.126Z,82.70
2018-12-07T14:53:14.297Z,82.70
2018-12-07T14:55:42.305Z,82.60
2018-12-07T14:58:11.240Z,82.60
2018-12-07T15:00:39.627Z,82.60
2018-12-07T15:03:07.633Z,82.50
2018-12-07T15:05:36.243Z,82.40
2018-12-07T15:08:04.741Z,82.40
2018-12-07T15:10:32.780Z,82.30
2018-12-07T15:13:00.911Z,82.30
2018-12-07T15:15:31.913Z,82.40
2018-12-07T15:17:59.838Z,82.40
2018-12-07T15:20:29.861Z,82.30
2018-12-07T15:22:57.920Z,82.20
2018-12-07T15:25:26.145Z,82.20
2018-12-07T15:27:54.245Z,82.40
2018-12-07T15:30:22.338Z,82.30
2018-12-07T15:32:50.338Z,82.20
2018-12-07T15:35:18.688Z,82.20
2018-12-07T15:37:46.783Z,82.20
2018-12-07T15:40:14.860Z,82.20
2018-12-07T15:42:43.356Z,82.10
2018-12-07T15:45:11.368Z,82.10
2018-12-07T15:47:39.449Z,82.20
2018-12-07T15:50:08.791Z,82.20
2018-12-07T15:52:36.827Z,82.00
2018-12-07T15:55:05.336Z,82.00
2018-12-07T15:57:33.732Z,82.00
2018-12-07T16:00:01.834Z,82.00
2018-12-07T16:02:30.384Z,82.00
2018-12-07T16:04:58.315Z,82.10
2018-12-07T16:07:26.220Z,82.10
2018-12-07T16:09:54.189Z,82.10
2018-12-07T16:12:22.257Z,82.30
2018-12-07T16:14:50.511Z,82.40
2018-12-07T16:17:18.649Z,82.60
2018-12-07T16:19:46.819Z,82.60
2018-12-07T16:22:14.858Z,82.70
2018-12-07T16:24:42.826Z,82.80
2018-12-07T16:27:10.809Z,83.00
2018-12-07T16:29:42.667Z,83.20
2018-12-07T16:32:11.311Z,83.50
2018-12-07T16:34:40.136Z,83.60
2018-12-07T16:37:08.571Z,83.50
2018-12-07T16:39:36.684Z,83.70
2018-12-07T16:42:04.907Z,83.90
2018-12-07T16:44:34.404Z,84.00
2018-12-07T16:47:02.289Z,84.40
2018-12-07T16:49:30.430Z,84.40
2018-12-07T16:51:58.369Z,84.40
2018-12-07T16:54:27.398Z,84.40
2018-12-07T16:56:56.643Z,84.60
2018-12-07T16:59:24.687Z,84.80
2018-12-07T17:01:53.135Z,85.10
2018-12-07T17:04:21.273Z,84.90
2018-12-07T17:06:52.824Z,85.20
2018-12-07T17:09:20.988Z,85.40
2018-12-07T17:11:49.126Z,85.40
2018-12-07T17:14:17.080Z,85.40
2018-12-07T17:16:45.134Z,85.40
2018-12-07T17:19:13.354Z,85.40
2018-12-07T17:21:42.641Z,85.50
2018-12-07T17:24:10.471Z,85.50
2018-12-07T17:26:38.696Z,85.40
2018-12-07T17:29:10.816Z,85.40
2018-12-07T17:31:39.211Z,85.40
2018-12-07T17:34:07.438Z,85.50
2018-12-07T17:36:35.879Z,85.40
2018-12-07T17:39:07.421Z,85.60
2018-12-07T17:41:38.179Z,85.60
2018-12-07T17:44:06.331Z,85.80
2018-12-07T17:46:34.637Z,85.90
2018-12-07T17:49:03.893Z,86.00
2018-12-07T17:51:32.063Z,86.30
2018-12-07T17:54:00.010Z,86.50
2018-12-07T17:56:28.347Z,86.70
2018-12-07T17:58:56.440Z,86.30
2018-12-07T18:04:03.769Z,86.40
2018-12-07T18:06:32.840Z,86.50
2018-12-07T18:09:03.199Z,86.60
2018-12-07T18:11:37.829Z,86.50
2018-12-07T18:14:07.027Z,86.50
2018-12-07T18:16:35.733Z,86.40
2018-12-07T18:19:03.973Z,86.40
2018-12-07T18:21:32.015Z,86.40
2018-12-07T18:24:02.634Z,86.40
2018-12-07T18:26:31.119Z,86.40
2018-12-07T18:28:59.087Z,86.40
2018-12-07T18:31:28.579Z,86.50
2018-12-07T18:33:58.205Z,86.60
2018-12-07T18:36:27.178Z,86.70
2018-12-07T18:38:55.303Z,86.90
2018-12-07T18:41:26.738Z,87.00
2018-12-07T18:43:58.150Z,87.00
2018-12-07T18:46:26.824Z,86.90
2018-12-07T18:48:55.023Z,87.00
2018-12-07T18:51:23.059Z,87.00
2018-12-07T18:53:54.933Z,86.90
2018-12-07T18:56:23.156Z,87.00
2018-12-07T18:58:51.274Z,87.00
2018-12-07T19:01:19.180Z,87.00
2018-12-07T19:03:47.374Z,87.00
2018-12-07T19:06:15.508Z,87.20
2018-12-07T19:08:43.416Z,87.20
2018-12-07T19:11:11.731Z,87.50
2018-12-07T19:13:39.980Z,87.50
2018-12-07T19:16:07.825Z,87.50
2018-12-07T19:18:37.005Z,87.50
2018-12-07T19:21:05.582Z,87.60
2018-12-07T19:23:33.624Z,87.60
2018-12-07T19:26:01.738Z,87.50
2018-12-07T19:28:29.925Z,87.70
2018-12-07T19:30:59.994Z,87.60
2018-12-07T19:33:29.513Z,87.70
2018-12-07T19:35:57.447Z,87.50
2018-12-07T19:38:25.519Z,87.40
2018-12-07T19:40:53.518Z,87.40
2018-12-07T19:43:21.574Z,87.30
2018-12-07T19:45:49.595Z,87.20
2018-12-07T19:48:17.788Z,87.20
2018-12-07T19:50:46.253Z,87.10
2018-12-07T19:53:14.330Z,87.00
2018-12-07T19:55:42.257Z,86.90
2018-12-07T19:58:10.416Z,87.00
2018-12-07T20:00:39.716Z,86.90
2018-12-07T20:03:07.726Z,86.80
2018-12-07T20:05:35.981Z,86.60
2018-12-07T20:08:04.945Z,86.60
2018-12-07T20:10:32.957Z,86.50
2018-12-07T20:13:01.193Z,86.50
2018-12-07T20:15:37.055Z,86.40
2018-12-07T20:18:05.260Z,86.60
2018-12-07T20:20:33.521Z,86.60
2018-12-07T20:23:01.773Z,86.20
2018-12-07T20:25:31.012Z,85.90
2018-12-07T20:27:59.090Z,86.10
2018-12-07T20:30:27.472Z,86.10
2018-12-07T20:32:55.956Z,86.20
2018-12-07T20:35:24.050Z,86.20
2018-12-07T20:37:51.960Z,86.30
2018-12-07T20:40:20.141Z,86.20
2018-12-07T20:42:48.289Z,86.00
2018-12-07T20:45:17.116Z,86.20
2018-12-07T20:47:47.321Z,86.40
2018-12-07T20:50:15.465Z,86.40
2018-12-07T20:52:44.540Z,86.70
2018-12-07T20:55:12.963Z,86.90
2018-12-07T20:57:44.869Z,86.90
2018-12-07T21:00:12.940Z,86.80
2018-12-07T21:02:41.493Z,86.60
2018-12-07T21:07:32.396Z,86.50
2018-12-07T21:10:27.107Z,86.60
2018-12-07T21:15:04.871Z,86.70
2018-12-07T21:17:36.239Z,86.60
2018-12-07T21:20:23.595Z,86.50
2018-12-07T21:22:51.828Z,86.90
2018-12-07T21:25:19.751Z,87.10
2018-12-07T21:27:48.855Z,87.20
2018-12-07T21:31:35.494Z,87.60
2018-12-07T21:34:26.058Z,87.70
2018-12-07T21:36:55.237Z,87.50
2018-12-07T21:39:32.887Z,87.30
2018-12-07T21:42:01.002Z,87.10
2018-12-07T21:44:29.009Z,86.90
2018-12-07T21:46:56.953Z,87.00
2018-12-07T21:49:27.954Z,87.00
2018-12-07T21:52:22.081Z,87.10
2018-12-07T21:54:50.046Z,87.00
2018-12-07T22:10:59.938Z,86.90
2018-12-07T22:26:52.840Z,87.80
2018-12-07T22:31:58.798Z,87.70
2018-12-07T22:34:27.017Z,87.90
2018-12-07T22:36:55.049Z,88.50
2018-12-07T22:39:25.011Z,88.40
2018-12-07T22:41:53.132Z,88.80
2018-12-07T22:44:21.360Z,89.00
2018-12-07T22:46:49.721Z,89.60
2018-12-07T22:49:17.646Z,89.80
2018-12-07T22:51:45.440Z,90.10
2018-12-07T22:54:13.806Z,90.10
2018-12-07T22:56:41.639Z,90.10
2018-12-07T22:59:09.638Z,90.20
2018-12-07T23:01:40.813Z,90.40
2018-12-07T23:04:08.860Z,90.40
2018-12-07T23:06:36.657Z,90.50
2018-12-07T23:09:06.757Z,90.60
2018-12-07T23:11:36.582Z,90.60
2018-12-07T23:14:04.835Z,90.50
2018-12-07T23:16:33.170Z,90.50
2018-12-07T23:19:02.194Z,90.50
2018-12-07T23:21:30.138Z,90.70
2018-12-07T23:23:58.113Z,90.70
2018-12-07T23:26:26.243Z,90.70
2018-12-07T23:31:27.745Z,90.90
2018-12-07T23:33:55.979Z,91.00
2018-12-07T23:36:24.049Z,91.10
2018-12-07T23:38:51.938Z,91.30
2018-12-07T23:41:19.951Z,91.30
2018-12-07T23:43:48.041Z,91.30
2018-12-07T23:46:15.813Z,91.40
2018-12-07T23:48:43.940Z,91.50
2018-12-07T23:51:11.843Z,91.40
2018-12-07T23:53:39.693Z,91.50
2018-12-07T23:56:10.593Z,91.50
2018-12-07T23:58:38.702Z,91.60
